Asteria — WDE5489 — position and weather

sailwx.info

Track history (hours):
 
Tides and Currents Weather Stations Pressure Air Temp Water Temp Dewpoint Dewpoint Depression Visibility Wind Speed Wind Dir Waves Ship Positions

Asteria

Owner: Boston HarborCruises, Boston, MA. More information available from US FCC via Universal Licensing System and Coast Guard Vessel Documentation Center.

Last reported at 2017-May-23 17:01 UTC. Time now 2017-May-23 17:03 UTC.
Position N 42°12' W 070°31'.

Length 33 m; draft 2 m.

Type: High speed craft. MMSI: 367367470.

Date/timePositionNaut miles runAvg speedWind from/ knotsBaromVisibWave heightAir tempDewpointWater temp
2017-May-23 17:01N 42°12' W 070°31'3 1.6
2017-May-23 15:03N 42°15' W 070°29'528.2
2017-May-23 14:52N 42°16' W 070°36'1128.6
2017-May-23 14:29N 42°18' W 070°50'1010.0
2017-May-23 13:30N 42°22' W 071°03'612.5
2017-May-23 13:01N 42°17' W 070°57'2 4.5
2017-May-23 12:30N 42°15' W 070°55'816.7
2017-May-23 12:01N 42°21' W 071°03'611.7
2017-May-23 11:31N 42°17' W 070°57'2 1.6
2017-May-23 10:17N 42°15' W 070°57'1 3.9
2017-May-23 09:59N 42°15' W 070°55'0 0.0
2017-May-23 09:30N 42°15' W 070°55'1 0.1
2017-May-23 00:58N 42°16' W 070°55'816.9
2017-May-23 00:30N 42°21' W 071°03'815.9
2017-May-23 00:00N 42°16' W 070°55'0 0.7
2017-May-22 23:30N 42°16' W 070°55'816.4
2017-May-22 23:00N 42°21' W 071°03'3 5.6
2017-May-22 22:30N 42°20' W 070°60'611.3
2017-May-22 22:00N 42°15' W 070°55'815.3
2017-May-22 21:30N 42°21' W 071°02'1 1.7
2017-May-22 21:01N 42°22' W 071°03'0 0.3
2017-May-22 20:30N 42°22' W 071°03'1 1.1
2017-May-22 20:00N 42°22' W 071°02'0 0.2
2017-May-22 19:31N 42°22' W 071°02'0 0.0
2017-May-22 19:00N 42°22' W 071°02'0 0.4
2017-May-22 18:31N 42°22' W 071°02'0 0.9
2017-May-22 18:01N 42°22' W 071°03'815.8
2017-May-22 17:31N 42°19' W 070°53'1530.8
2017-May-22 17:01N 42°17' W 070°32'11 6.5
2017-May-22 15:22N 42°21' W 070°19'1027.3
2017-May-22 15:00N 42°22' W 070°32'2323.0
2017-May-22 14:00N 42°22' W 071°03'0 0.5
2017-May-22 13:30N 42°21' W 071°03'510.6
2017-May-22 13:00N 42°18' W 070°58'3 5.5
2017-May-22 12:30N 42°16' W 070°55'816.2
2017-May-22 12:01N 42°21' W 071°03'612.6
2017-May-22 11:30N 42°17' W 070°57'2 4.0
2017-May-22 10:59N 42°15' W 070°55'1 1.6
2017-May-22 10:30N 42°16' W 070°55'2 3.8
2017-May-22 10:00N 42°15' W 070°57'2 3.6
2017-May-22 09:30N 42°16' W 070°55'2 0.2
2017-May-21 22:49N 42°17' W 070°57'6 8.4
2017-May-21 22:07N 42°21' W 071°02'326.4
2017-May-21 22:01N 42°20' W 070°58'1529.6
2017-May-21 21:31N 42°18' W 070°39'1529.5
2017-May-21 21:01N 42°16' W 070°19'612.2
2017-May-21 20:31N 42°15' W 070°11'2 4.6
2017-May-21 20:01N 42°14' W 070°14'1428.3
2017-May-21 19:31N 42°16' W 070°33'1427.9
2017-May-21 19:01N 42°19' W 070°51'918.1
2017-May-21 18:30N 42°22' W 071°03'0 0.0
2017-May-21 18:00N 42°22' W 071°03'1122.5
2017-May-21 17:31N 42°24' W 070°48'1428.0
2017-May-21 17:01N 42°30' W 070°31'1325.5
2017-May-21 16:30N 42°35' W 070°15'917.5
2017-May-21 16:00N 42°44' W 070°19'4 7.7
2017-May-21 15:31N 42°44' W 070°24'1427.6
2017-May-21 15:00N 42°34' W 070°38'2322.6
2017-May-21 14:00N 42°22' W 071°03'1 0.7
2017-May-21 13:14N 42°22' W 071°02'0 0.5
2017-May-21 13:00N 42°22' W 071°02'1 0.0
2017-May-20 23:29N 42°22' W 071°03'612.6
2017-May-20 23:00N 42°22' W 070°55'1427.5
2017-May-20 22:31N 42°32' W 070°42'1427.3
2017-May-20 22:01N 42°41' W 070°28'1427.8
2017-May-20 21:30N 42°51' W 070°15'6 5.3
2017-May-20 20:28N 42°48' W 070°21'1328.0
2017-May-20 20:01N 42°38' W 070°32'1427.5
2017-May-20 19:31N 42°29' W 070°46'1326.0
2017-May-20 19:01N 42°20' W 070°59'3 6.0
2017-May-20 18:31N 42°22' W 071°03'4 8.2
2017-May-20 18:01N 42°20' W 070°58'1427.6
2017-May-20 17:30N 42°29' W 070°43'1428.8
2017-May-20 17:01N 42°37' W 070°27'1223.3
2017-May-20 16:30N 42°46' W 070°16'0 0.7
2017-May-20 16:01N 42°46' W 070°17'815.1
2017-May-20 15:31N 42°41' W 070°25'1427.0
2017-May-20 15:00N 42°32' W 070°38'1427.3
2017-May-20 14:30N 42°24' W 070°53'8 7.8
2017-May-20 13:30N 42°22' W 071°03'0 0.0
2017-May-20 13:00N 42°22' W 071°03'1 1.3
2017-May-20 12:30N 42°22' W 071°02'1 1.3
2017-May-20 12:00N 42°22' W 071°03'815.8
2017-May-20 11:30N 42°15' W 070°57'1 0.1
2017-May-20 01:11N 42°15' W 070°55'0 0.6
2017-May-20 00:59N 42°15' W 070°55'817.4
2017-May-20 00:30N 42°21' W 071°03'2 5.0
2017-May-20 00:00N 42°20' W 071°00'611.7
2017-May-19 23:30N 42°15' W 070°55'816.2
2017-May-19 23:00N 42°21' W 071°03'4 7.3
2017-May-19 22:30N 42°19' W 070°59'5 9.7
2017-May-19 22:01N 42°15' W 070°55'713.9
2017-May-19 21:31N 42°21' W 071°01'2 3.0
2017-May-19 21:01N 42°21' W 071°03'5 9.3
2017-May-19 20:31N 42°18' W 070°58'4 7.4
2017-May-19 20:00N 42°15' W 070°55'816.3
2017-May-19 19:31N 42°21' W 071°02'0 0.9
2017-May-19 19:00N 42°22' W 071°03'510.0
2017-May-19 18:31N 42°21' W 070°56'1427.3
2017-May-19 18:00N 42°31' W 070°43'1327.0
2017-May-19 17:31N 42°40' W 070°30'1121.3
2017-May-19 17:01N 42°47' W 070°20'4 7.8
2017-May-19 16:26N 42°51' W 070°17'2 4.4
2017-May-19 15:59N 42°50' W 070°19'1224.6
2017-May-19 15:31N 42°41' W 070°28'1428.4
2017-May-19 15:01N 42°31' W 070°42'1818.0
2017-May-19 14:00N 42°22' W 071°03'0 0.0
2017-May-19 13:30N 42°22' W 071°03'0 0.0
2017-May-19 13:00N 42°22' W 071°03'0 0.5
2017-May-19 12:30N 42°21' W 071°03'612.7
2017-May-19 12:00N 42°17' W 070°57'2 4.1
2017-May-19 11:30N 42°15' W 070°55'714.2
2017-May-19 11:01N 42°21' W 071°01'1 1.6
2017-May-19 10:30N 42°21' W 071°02'8 0.8
2017-May-19 00:59N 42°16' W 070°55'816.8
2017-May-19 00:30N 42°21' W 071°03'4 8.7
2017-May-19 00:00N 42°18' W 070°59'4 7.5
2017-May-18 23:30N 42°16' W 070°55'816.3
2017-May-18 23:00N 42°21' W 071°03'3 6.7
2017-May-18 22:30N 42°19' W 070°59'510.1
2017-May-18 22:00N 42°15' W 070°55'713.8
2017-May-18 21:31N 42°21' W 071°01'2 3.2
2017-May-18 21:00N 42°21' W 071°03'1 1.4
2017-May-18 20:30N 42°22' W 071°02'0 0.0
2017-May-18 20:00N 42°22' W 071°02'0 0.0
2017-May-18 19:30N 42°22' W 071°02'1 1.1
2017-May-18 19:00N 42°22' W 071°03'0 0.0
2017-May-18 18:30N 42°22' W 071°03'0 0.0
2017-May-18 18:01N 42°22' W 071°03'1 1.7
2017-May-18 17:30N 42°21' W 071°02'815.6
2017-May-18 17:01N 42°15' W 070°55'0 0.4
2017-May-18 16:30N 42°15' W 070°55'1 1.5
2017-May-18 16:00N 42°16' W 070°56'1 1.6
2017-May-18 15:31N 42°15' W 070°55'0 0.0
2017-May-18 15:01N 42°15' W 070°55'8 8.5
2017-May-18 14:00N 42°22' W 071°03'611.6
2017-May-18 13:31N 42°17' W 070°57'2 4.6
2017-May-18 13:00N 42°16' W 070°55'816.2
2017-May-18 12:31N 42°21' W 071°03'612.1
2017-May-18 12:01N 42°17' W 070°57'2 4.7
2017-May-18 11:30N 42°15' W 070°55'713.5
2017-May-18 11:00N 42°21' W 071°01'2 3.2
2017-May-18 10:30N 42°21' W 071°02'816.5
2017-May-18 10:01N 42°15' W 070°55'0 0.0
2017-May-18 09:30N 42°15' W 070°55'0 0.0
2017-May-18 01:01N 42°16' W 070°55'0 5.0
2017-May-18 01:01N 42°16' W 070°55'816.1
2017-May-18 00:30N 42°21' W 071°03'611.2
2017-May-18 00:01N 42°17' W 070°58'2 4.7
2017-May-17 23:31N 42°16' W 070°55'815.8
2017-May-17 23:00N 42°21' W 071°03'4 7.2
2017-May-17 22:31N 42°19' W 070°59'5 9.6
2017-May-17 22:00N 42°15' W 070°55'714.2
2017-May-17 21:31N 42°21' W 071°01'1 2.7
2017-May-17 21:00N 42°21' W 071°03'5 9.8
2017-May-17 20:31N 42°18' W 070°58'3 5.8
2017-May-17 20:01N 42°16' W 070°55'815.4
2017-May-17 19:30N 42°21' W 071°03'0 0.6
2017-May-17 18:59N 42°22' W 071°03'0 0.0
2017-May-17 18:30N 42°22' W 071°03'3 6.2
2017-May-17 18:01N 42°20' W 070°59'1428.2
2017-May-17 17:31N 42°20' W 070°40'1529.3
2017-May-17 17:00N 42°19' W 070°20'8 4.3
2017-May-17 15:15N 42°13' W 070°26'728.3
2017-May-17 15:01N 42°15' W 070°35'2222.1
2017-May-17 14:01N 42°22' W 071°03'0 0.0
2017-May-17 13:31N 42°22' W 071°03'1 1.3
2017-May-17 13:00N 42°22' W 071°02'1 1.4
2017-May-17 12:31N 42°21' W 071°03'713.1
2017-May-17 12:01N 42°17' W 070°56'2 3.8
2017-May-17 11:30N 42°15' W 070°55'714.5
2017-May-17 11:01N 42°21' W 071°01'1 1.5
2017-May-17 10:30N 42°21' W 071°02'815.9
2017-May-17 10:00N 42°15' W 070°55'0 0.0
2017-May-17 09:30N 42°15' W 070°55'0 0.0
2017-May-17 09:00N 42°15' W 070°55'0 0.0
2017-May-17 01:04N 42°15' W 070°55'0 0.0
2017-May-17 01:00N 42°15' W 070°55'816.7
2017-May-17 00:30N 42°21' W 071°03'3 5.9
2017-May-17 00:00N 42°20' W 070°60'5 9.9
2017-May-16 23:28N 42°15' W 070°55'817.9
2017-May-16 23:00N 42°21' W 071°03'3 5.5
2017-May-16 22:31N 42°20' W 070°60'611.3
2017-May-16 22:00N 42°15' W 070°55'612.7
2017-May-16 21:31N 42°20' W 071°00'2 4.3
2017-May-16 21:00N 42°21' W 071°03'4 8.3
2017-May-16 20:31N 42°19' W 070°59'4 8.4
2017-May-16 20:00N 42°15' W 070°55'816.3
2017-May-16 19:30N 42°21' W 071°03'0 0.5
2017-May-16 19:01N 42°21' W 071°03'0 0.5
2017-May-16 18:28N 42°22' W 071°03'0 0.0
2017-May-16 17:59N 42°22' W 071°03'613.6
2017-May-16 17:31N 42°19' W 070°55'13 4.9
2017-May-16 14:52N 42°15' W 070°39'1029.4
2017-May-16 14:31N 42°19' W 070°51'9 9.0
2017-May-16 13:30N 42°22' W 071°03'0 0.5
2017-May-16 13:00N 42°22' W 071°03'0 0.5
2017-May-16 12:30N 42°21' W 071°03'612.4
2017-May-16 12:01N 42°17' W 070°57'2 4.3
2017-May-16 11:30N 42°15' W 070°55'611.8
2017-May-16 11:00N 42°20' W 070°60'2 4.8
2017-May-16 10:30N 42°21' W 071°03'816.4
2017-May-16 10:00N 42°15' W 070°55'0 0.0
2017-May-16 09:30N 42°15' W 070°55'0 0.0
2017-May-16 01:10N 42°15' W 070°55'0 2.5
2017-May-16 01:00N 42°16' W 070°55'816.1
2017-May-16 00:30N 42°21' W 071°03'5 9.5
2017-May-16 00:01N 42°18' W 070°58'3 6.9
2017-May-15 23:30N 42°16' W 070°55'816.4
2017-May-15 23:00N 42°21' W 071°03'4 8.3
2017-May-15 22:30N 42°19' W 070°59'4 8.4
2017-May-15 22:00N 42°15' W 070°55'713.6
2017-May-15 21:31N 42°21' W 071°01'2 3.3
2017-May-15 21:01N 42°21' W 071°03'5 9.3
2017-May-15 20:31N 42°18' W 070°58'4 7.2
2017-May-15 20:00N 42°15' W 070°55'816.1
2017-May-15 19:30N 42°21' W 071°02'1 1.1
2017-May-15 19:00N 42°22' W 071°03'0 0.2
2017-May-15 18:29N 42°22' W 071°03'0 0.0
2017-May-15 16:45N 42°22' W 071°03'1 2.2
2017-May-15 16:31N 42°22' W 071°02'0 0.1
2017-May-15 16:00N 42°22' W 071°02'815.0
2017-May-15 15:31N 42°16' W 070°56'2 0.9
2017-May-15 13:48N 42°15' W 070°58'3 9.1
2017-May-15 13:31N 42°17' W 070°57'612.0
2017-May-15 13:00N 42°22' W 071°03'0 0.5
2017-May-15 12:30N 42°21' W 071°03'714.7
2017-May-15 12:01N 42°16' W 070°56'1 2.1
2017-May-15 11:30N 42°15' W 070°55'612.7
2017-May-15 11:01N 42°20' W 071°00'2 3.4
2017-May-15 10:31N 42°21' W 071°02'815.7
2017-May-15 10:00N 42°15' W 070°55'0 0.0
2017-May-13 20:30N 42°16' W 070°55'2 1.7
2017-May-13 19:05N 42°15' W 070°58'1 6.3
2017-May-13 18:54N 42°15' W 070°57'820.1
2017-May-13 18:31N 42°22' W 071°03'611.1
2017-May-13 18:01N 42°21' W 070°55'1122.9
2017-May-13 17:30N 42°18' W 070°40'  
Track history (hours):
 
Tides and Currents Weather Stations Pressure Air Temp Water Temp Dewpoint Dewpoint Depression Visibility Wind Speed Wind Dir Waves Ship Positions

Asteria

Owner: Boston HarborCruises, Boston, MA. More information available from US FCC via Universal Licensing System and Coast Guard Vessel Documentation Center.

Last reported at 2017-May-23 17:01 UTC. Time now 2017-May-23 17:03 UTC.
Position N 42°12' W 070°31'.

Length 33 m; draft 2 m.

Type: High speed craft. MMSI: 367367470.

Date/timePositionNaut miles runAvg speedWind from/ knotsBaromVisibWave heightAir tempDewpointWater temp
2017-May-23 17:01N 42°12' W 070°31'3 1.6
2017-May-23 15:03N 42°15' W 070°29'528.2
2017-May-23 14:52N 42°16' W 070°36'1128.6
2017-May-23 14:29N 42°18' W 070°50'1010.0
2017-May-23 13:30N 42°22' W 071°03'612.5
2017-May-23 13:01N 42°17' W 070°57'2 4.5
2017-May-23 12:30N 42°15' W 070°55'816.7
2017-May-23 12:01N 42°21' W 071°03'611.7
2017-May-23 11:31N 42°17' W 070°57'2 1.6
2017-May-23 10:17N 42°15' W 070°57'1 3.9
2017-May-23 09:59N 42°15' W 070°55'0 0.0
2017-May-23 09:30N 42°15' W 070°55'1 0.1
2017-May-23 00:58N 42°16' W 070°55'816.9
2017-May-23 00:30N 42°21' W 071°03'815.9
2017-May-23 00:00N 42°16' W 070°55'0 0.7
2017-May-22 23:30N 42°16' W 070°55'816.4
2017-May-22 23:00N 42°21' W 071°03'3 5.6
2017-May-22 22:30N 42°20' W 070°60'611.3
2017-May-22 22:00N 42°15' W 070°55'815.3
2017-May-22 21:30N 42°21' W 071°02'1 1.7
2017-May-22 21:01N 42°22' W 071°03'0 0.3
2017-May-22 20:30N 42°22' W 071°03'1 1.1
2017-May-22 20:00N 42°22' W 071°02'0 0.2
2017-May-22 19:31N 42°22' W 071°02'0 0.0
2017-May-22 19:00N 42°22' W 071°02'0 0.4
2017-May-22 18:31N 42°22' W 071°02'0 0.9
2017-May-22 18:01N 42°22' W 071°03'815.8
2017-May-22 17:31N 42°19' W 070°53'1530.8
2017-May-22 17:01N 42°17' W 070°32'11 6.5
2017-May-22 15:22N 42°21' W 070°19'1027.3
2017-May-22 15:00N 42°22' W 070°32'2323.0
2017-May-22 14:00N 42°22' W 071°03'0 0.5
2017-May-22 13:30N 42°21' W 071°03'510.6
2017-May-22 13:00N 42°18' W 070°58'3 5.5
2017-May-22 12:30N 42°16' W 070°55'816.2
2017-May-22 12:01N 42°21' W 071°03'612.6
2017-May-22 11:30N 42°17' W 070°57'2 4.0
2017-May-22 10:59N 42°15' W 070°55'1 1.6
2017-May-22 10:30N 42°16' W 070°55'2 3.8
2017-May-22 10:00N 42°15' W 070°57'2 3.6
2017-May-22 09:30N 42°16' W 070°55'2 0.2
2017-May-21 22:49N 42°17' W 070°57'6 8.4
2017-May-21 22:07N 42°21' W 071°02'326.4
2017-May-21 22:01N 42°20' W 070°58'1529.6
2017-May-21 21:31N 42°18' W 070°39'1529.5
2017-May-21 21:01N 42°16' W 070°19'612.2
2017-May-21 20:31N 42°15' W 070°11'2 4.6
2017-May-21 20:01N 42°14' W 070°14'1428.3
2017-May-21 19:31N 42°16' W 070°33'1427.9
2017-May-21 19:01N 42°19' W 070°51'918.1
2017-May-21 18:30N 42°22' W 071°03'0 0.0
2017-May-21 18:00N 42°22' W 071°03'1122.5
2017-May-21 17:31N 42°24' W 070°48'1428.0
2017-May-21 17:01N 42°30' W 070°31'1325.5
2017-May-21 16:30N 42°35' W 070°15'917.5
2017-May-21 16:00N 42°44' W 070°19'4 7.7
2017-May-21 15:31N 42°44' W 070°24'1427.6
2017-May-21 15:00N 42°34' W 070°38'2322.6
2017-May-21 14:00N 42°22' W 071°03'1 0.7
2017-May-21 13:14N 42°22' W 071°02'0 0.5
2017-May-21 13:00N 42°22' W 071°02'1 0.0
2017-May-20 23:29N 42°22' W 071°03'612.6
2017-May-20 23:00N 42°22' W 070°55'1427.5
2017-May-20 22:31N 42°32' W 070°42'1427.3
2017-May-20 22:01N 42°41' W 070°28'1427.8
2017-May-20 21:30N 42°51' W 070°15'6 5.3
2017-May-20 20:28N 42°48' W 070°21'1328.0
2017-May-20 20:01N 42°38' W 070°32'1427.5
2017-May-20 19:31N 42°29' W 070°46'1326.0
2017-May-20 19:01N 42°20' W 070°59'3 6.0
2017-May-20 18:31N 42°22' W 071°03'4 8.2
2017-May-20 18:01N 42°20' W 070°58'1427.6
2017-May-20 17:30N 42°29' W 070°43'1428.8
2017-May-20 17:01N 42°37' W 070°27'1223.3
2017-May-20 16:30N 42°46' W 070°16'0 0.7
2017-May-20 16:01N 42°46' W 070°17'815.1
2017-May-20 15:31N 42°41' W 070°25'1427.0
2017-May-20 15:00N 42°32' W 070°38'1427.3
2017-May-20 14:30N 42°24' W 070°53'8 7.8
2017-May-20 13:30N 42°22' W 071°03'0 0.0
2017-May-20 13:00N 42°22' W 071°03'1 1.3
2017-May-20 12:30N 42°22' W 071°02'1 1.3
2017-May-20 12:00N 42°22' W 071°03'815.8
2017-May-20 11:30N 42°15' W 070°57'1 0.1
2017-May-20 01:11N 42°15' W 070°55'0 0.6
2017-May-20 00:59N 42°15' W 070°55'817.4
2017-May-20 00:30N 42°21' W 071°03'2 5.0
2017-May-20 00:00N 42°20' W 071°00'611.7
2017-May-19 23:30N 42°15' W 070°55'816.2
2017-May-19 23:00N 42°21' W 071°03'4 7.3
2017-May-19 22:30N 42°19' W 070°59'5 9.7
2017-May-19 22:01N 42°15' W 070°55'713.9
2017-May-19 21:31N 42°21' W 071°01'2 3.0
2017-May-19 21:01N 42°21' W 071°03'5 9.3
2017-May-19 20:31N 42°18' W 070°58'4 7.4
2017-May-19 20:00N 42°15' W 070°55'816.3
2017-May-19 19:31N 42°21' W 071°02'0 0.9
2017-May-19 19:00N 42°22' W 071°03'510.0
2017-May-19 18:31N 42°21' W 070°56'1427.3
2017-May-19 18:00N 42°31' W 070°43'1327.0
2017-May-19 17:31N 42°40' W 070°30'1121.3
2017-May-19 17:01N 42°47' W 070°20'4 7.8
2017-May-19 16:26N 42°51' W 070°17'2 4.4
2017-May-19 15:59N 42°50' W 070°19'1224.6
2017-May-19 15:31N 42°41' W 070°28'1428.4
2017-May-19 15:01N 42°31' W 070°42'1818.0
2017-May-19 14:00N 42°22' W 071°03'0 0.0
2017-May-19 13:30N 42°22' W 071°03'0 0.0
2017-May-19 13:00N 42°22' W 071°03'0 0.5
2017-May-19 12:30N 42°21' W 071°03'612.7
2017-May-19 12:00N 42°17' W 070°57'2 4.1
2017-May-19 11:30N 42°15' W 070°55'714.2
2017-May-19 11:01N 42°21' W 071°01'1 1.6
2017-May-19 10:30N 42°21' W 071°02'8 0.8
2017-May-19 00:59N 42°16' W 070°55'816.8
2017-May-19 00:30N 42°21' W 071°03'4 8.7
2017-May-19 00:00N 42°18' W 070°59'4 7.5
2017-May-18 23:30N 42°16' W 070°55'816.3
2017-May-18 23:00N 42°21' W 071°03'3 6.7
2017-May-18 22:30N 42°19' W 070°59'510.1
2017-May-18 22:00N 42°15' W 070°55'713.8
2017-May-18 21:31N 42°21' W 071°01'2 3.2
2017-May-18 21:00N 42°21' W 071°03'1 1.4
2017-May-18 20:30N 42°22' W 071°02'0 0.0
2017-May-18 20:00N 42°22' W 071°02'0 0.0
2017-May-18 19:30N 42°22' W 071°02'1 1.1
2017-May-18 19:00N 42°22' W 071°03'0 0.0
2017-May-18 18:30N 42°22' W 071°03'0 0.0
2017-May-18 18:01N 42°22' W 071°03'1 1.7
2017-May-18 17:30N 42°21' W 071°02'815.6
2017-May-18 17:01N 42°15' W 070°55'0 0.4
2017-May-18 16:30N 42°15' W 070°55'1 1.5
2017-May-18 16:00N 42°16' W 070°56'1 1.6
2017-May-18 15:31N 42°15' W 070°55'0 0.0
2017-May-18 15:01N 42°15' W 070°55'8 8.5
2017-May-18 14:00N 42°22' W 071°03'611.6
2017-May-18 13:31N 42°17' W 070°57'2 4.6
2017-May-18 13:00N 42°16' W 070°55'816.2
2017-May-18 12:31N 42°21' W 071°03'612.1
2017-May-18 12:01N 42°17' W 070°57'2 4.7
2017-May-18 11:30N 42°15' W 070°55'713.5
2017-May-18 11:00N 42°21' W 071°01'2 3.2
2017-May-18 10:30N 42°21' W 071°02'816.5
2017-May-18 10:01N 42°15' W 070°55'0 0.0
2017-May-18 09:30N 42°15' W 070°55'0 0.0
2017-May-18 01:01N 42°16' W 070°55'0 5.0
2017-May-18 01:01N 42°16' W 070°55'816.1
2017-May-18 00:30N 42°21' W 071°03'611.2
2017-May-18 00:01N 42°17' W 070°58'2 4.7
2017-May-17 23:31N 42°16' W 070°55'815.8
2017-May-17 23:00N 42°21' W 071°03'4 7.2
2017-May-17 22:31N 42°19' W 070°59'5 9.6
2017-May-17 22:00N 42°15' W 070°55'714.2
2017-May-17 21:31N 42°21' W 071°01'1 2.7
2017-May-17 21:00N 42°21' W 071°03'5 9.8
2017-May-17 20:31N 42°18' W 070°58'3 5.8
2017-May-17 20:01N 42°16' W 070°55'815.4
2017-May-17 19:30N 42°21' W 071°03'0 0.6
2017-May-17 18:59N 42°22' W 071°03'0 0.0
2017-May-17 18:30N 42°22' W 071°03'3 6.2
2017-May-17 18:01N 42°20' W 070°59'1428.2
2017-May-17 17:31N 42°20' W 070°40'1529.3
2017-May-17 17:00N 42°19' W 070°20'8 4.3
2017-May-17 15:15N 42°13' W 070°26'728.3
2017-May-17 15:01N 42°15' W 070°35'2222.1
2017-May-17 14:01N 42°22' W 071°03'0 0.0
2017-May-17 13:31N 42°22' W 071°03'1 1.3
2017-May-17 13:00N 42°22' W 071°02'1 1.4
2017-May-17 12:31N 42°21' W 071°03'713.1
2017-May-17 12:01N 42°17' W 070°56'2 3.8
2017-May-17 11:30N 42°15' W 070°55'714.5
2017-May-17 11:01N 42°21' W 071°01'1 1.5
2017-May-17 10:30N 42°21' W 071°02'815.9
2017-May-17 10:00N 42°15' W 070°55'0 0.0
2017-May-17 09:30N 42°15' W 070°55'0 0.0
2017-May-17 09:00N 42°15' W 070°55'0 0.0
2017-May-17 01:04N 42°15' W 070°55'0 0.0
2017-May-17 01:00N 42°15' W 070°55'816.7
2017-May-17 00:30N 42°21' W 071°03'3 5.9
2017-May-17 00:00N 42°20' W 070°60'5 9.9
2017-May-16 23:28N 42°15' W 070°55'817.9
2017-May-16 23:00N 42°21' W 071°03'3 5.5
2017-May-16 22:31N 42°20' W 070°60'611.3
2017-May-16 22:00N 42°15' W 070°55'612.7
2017-May-16 21:31N 42°20' W 071°00'2 4.3
2017-May-16 21:00N 42°21' W 071°03'4 8.3
2017-May-16 20:31N 42°19' W 070°59'4 8.4
2017-May-16 20:00N 42°15' W 070°55'816.3
2017-May-16 19:30N 42°21' W 071°03'0 0.5
2017-May-16 19:01N 42°21' W 071°03'0 0.5
2017-May-16 18:28N 42°22' W 071°03'0 0.0
2017-May-16 17:59N 42°22' W 071°03'613.6
2017-May-16 17:31N 42°19' W 070°55'13 4.9
2017-May-16 14:52N 42°15' W 070°39'1029.4
2017-May-16 14:31N 42°19' W 070°51'9 9.0
2017-May-16 13:30N 42°22' W 071°03'0 0.5
2017-May-16 13:00N 42°22' W 071°03'0 0.5
2017-May-16 12:30N 42°21' W 071°03'612.4
2017-May-16 12:01N 42°17' W 070°57'2 4.3
2017-May-16 11:30N 42°15' W 070°55'611.8
2017-May-16 11:00N 42°20' W 070°60'2 4.8
2017-May-16 10:30N 42°21' W 071°03'816.4
2017-May-16 10:00N 42°15' W 070°55'0 0.0
2017-May-16 09:30N 42°15' W 070°55'0 0.0
2017-May-16 01:10N 42°15' W 070°55'0 2.5
2017-May-16 01:00N 42°16' W 070°55'816.1
2017-May-16 00:30N 42°21' W 071°03'5 9.5
2017-May-16 00:01N 42°18' W 070°58'3 6.9
2017-May-15 23:30N 42°16' W 070°55'816.4
2017-May-15 23:00N 42°21' W 071°03'4 8.3
2017-May-15 22:30N 42°19' W 070°59'4 8.4
2017-May-15 22:00N 42°15' W 070°55'713.6
2017-May-15 21:31N 42°21' W 071°01'2 3.3
2017-May-15 21:01N 42°21' W 071°03'5 9.3
2017-May-15 20:31N 42°18' W 070°58'4 7.2
2017-May-15 20:00N 42°15' W 070°55'816.1
2017-May-15 19:30N 42°21' W 071°02'1 1.1
2017-May-15 19:00N 42°22' W 071°03'0 0.2
2017-May-15 18:29N 42°22' W 071°03'0 0.0
2017-May-15 16:45N 42°22' W 071°03'1 2.2
2017-May-15 16:31N 42°22' W 071°02'0 0.1
2017-May-15 16:00N 42°22' W 071°02'815.0
2017-May-15 15:31N 42°16' W 070°56'2 0.9
2017-May-15 13:48N 42°15' W 070°58'3 9.1
2017-May-15 13:31N 42°17' W 070°57'612.0
2017-May-15 13:00N 42°22' W 071°03'0 0.5
2017-May-15 12:30N 42°21' W 071°03'714.7
2017-May-15 12:01N 42°16' W 070°56'1 2.1
2017-May-15 11:30N 42°15' W 070°55'612.7
2017-May-15 11:01N 42°20' W 071°00'2 3.4
2017-May-15 10:31N 42°21' W 071°02'815.7
2017-May-15 10:00N 42°15' W 070°55'0 0.0
2017-May-13 20:30N 42°16' W 070°55'2 1.7
2017-May-13 19:05N 42°15' W 070°58'1 6.3
2017-May-13 18:54N 42°15' W 070°57'820.1
2017-May-13 18:31N 42°22' W 071°03'611.1
2017-May-13 18:01N 42°21' W 070°55'1122.9
2017-May-13 17:30N 42°18' W 070°40'  

Dump ship's entire track history